Time;durP1;ratioP1;P1;durP2;ratioP2;P2;SDS_P1;SDS_P2;PMS_P1;PMS_P2;Temp;Humidity;BMP_temperature;BMP_pressure;BME280_temperature;BME280_humidity;BME280_pressure;Samples;Min_cycle;Max_cycle;Signal;HPM_P1;HPM_P2
2021/10/28 00:14:24;;;;;;;12.45;11.15;;;;;;;;;;5071684;28;20044;-61
2021/10/28 00:16:51;;;;;;;12.40;10.52;;;;;;;;;;5072728;28;20029;-60
2021/10/28 00:19:16;;;;;;;11.93;9.10;;;;;;;;;;5072873;28;20035;-63
2021/10/28 00:21:42;;;;;;;10.90;8.65;;;;;;;;;;5071595;28;20103;-62
2021/10/28 00:24:10;;;;;;;11.93;9.75;;;;;;;;;;5072451;28;20020;-63
2021/10/28 00:26:37;;;;;;;15.25;10.55;;;;;;;;;;5071424;28;20056;-63
2021/10/28 00:29:05;;;;;;;12.52;10.68;;;;;;;;;;5072943;28;20048;-62
2021/10/28 00:31:31;;;;;;;12.65;9.65;;;;;;;;;;5071247;28;20389;-62
2021/10/28 00:33:57;;;;;;;12.68;10.80;;;;;;;;;;5071436;28;20052;-56
2021/10/28 00:36:23;;;;;;;12.27;10.88;;;;;;;;;;5072101;28;20058;-61
2021/10/28 00:38:48;;;;;;;12.80;9.68;;;;;;;;;;5072501;28;20392;-61
2021/10/28 00:41:14;;;;;;;14.15;10.93;;;;;;;;;;5071993;28;20024;-61
2021/10/28 00:43:45;;;;;;;13.40;10.40;;;;;;;;;;5071250;28;20123;-61
2021/10/28 00:46:10;;;;;;;13.90;11.00;;;;;;;;;;5072804;28;20070;-61
2021/10/28 00:48:35;;;;;;;14.55;11.50;;;;;;;;;;5071962;28;20458;-62
2021/10/28 00:51:02;;;;;;;12.70;9.80;;;;;;;;;;5072376;28;20024;-61
2021/10/28 00:53:27;;;;;;;15.48;11.15;;;;;;;;;;5071185;28;20043;-61
2021/10/28 00:55:52;;;;;;;13.68;11.07;;;;;;;;;;5071191;28;20392;-61
2021/10/28 00:58:22;;;;;;;16.00;11.52;;;;;;;;;;5069779;28;20082;-61
2021/10/28 01:00:47;;;;;;;15.35;11.50;;;;;;;;;;5072046;28;20388;-61
2021/10/28 01:03:13;;;;;;;14.30;11.25;;;;;;;;;;5071084;28;20021;-62
2021/10/28 01:05:38;;;;;;;12.05;9.23;;;;;;;;;;5071120;28;20026;-60
2021/10/28 01:08:04;;;;;;;15.27;11.65;;;;;;;;;;5071652;28;20028;-61
2021/10/28 01:10:30;;;;;;;16.40;11.85;;;;;;;;;;5070647;28;20491;-62
2021/10/28 01:12:55;;;;;;;15.15;11.60;;;;;;;;;;5071854;28;20025;-62
2021/10/28 01:15:20;;;;;;;15.77;11.90;;;;;;;;;;5071256;28;20034;-62
2021/10/28 01:17:45;;;;;;;16.23;11.95;;;;;;;;;;5071412;28;20371;-62
2021/10/28 01:20:11;;;;;;;14.85;11.27;;;;;;;;;;5071589;28;20073;-61
2021/10/28 01:22:38;;;;;;;11.43;9.25;;;;;;;;;;5070952;28;20032;-62
2021/10/28 01:25:04;;;;;;;12.35;10.32;;;;;;;;;;5070468;28;20512;-62
2021/10/28 01:27:29;;;;;;;14.05;11.15;;;;;;;;;;5066431;28;20033;-62
2021/10/28 01:29:54;;;;;;;13.93;10.93;;;;;;;;;;5071374;28;20025;-61
2021/10/28 01:32:19;;;;;;;14.30;11.18;;;;;;;;;;5071193;28;20032;-56
2021/10/28 01:34:45;;;;;;;10.85;9.05;;;;;;;;;;5071657;28;20029;-61
2021/10/28 01:37:12;;;;;;;12.80;9.80;;;;;;;;;;5086749;28;20025;-61
2021/10/28 01:39:37;;;;;;;16.10;12.55;;;;;;;;;;5070827;28;20103;-61
2021/10/28 01:42:05;;;;;;;17.17;12.45;;;;;;;;;;5070096;28;20119;-61
2021/10/28 01:44:33;;;;;;;16.67;13.23;;;;;;;;;;5069494;28;20085;-61
2021/10/28 01:46:58;;;;;;;14.68;11.82;;;;;;;;;;5071584;28;20025;-61
2021/10/28 01:49:27;;;;;;;12.48;10.68;;;;;;;;;;5071147;28;20027;-63
2021/10/28 01:51:53;;;;;;;13.20;10.70;;;;;;;;;;5070641;28;20060;-61
2021/10/28 01:54:19;;;;;;;11.30;10.05;;;;;;;;;;5070634;28;20036;-61
2021/10/28 01:56:44;;;;;;;11.85;8.48;;;;;;;;;;5069232;28;20029;-62
2021/10/28 01:59:09;;;;;;;11.23;9.27;;;;;;;;;;5071919;28;20028;-62
2021/10/28 02:01:35;;;;;;;11.35;8.75;;;;;;;;;;5070894;28;20059;-62
2021/10/28 02:04:01;;;;;;;11.88;9.95;;;;;;;;;;5070309;28;20134;-62
2021/10/28 02:06:28;;;;;;;14.50;11.55;;;;;;;;;;5071376;28;20222;-62
2021/10/28 02:08:53;;;;;;;15.18;10.65;;;;;;;;;;5071639;28;20542;-61
2021/10/28 02:11:18;;;;;;;14.13;10.93;;;;;;;;;;5070819;28;20024;-62
2021/10/28 02:13:44;;;;;;;14.63;11.27;;;;;;;;;;5070103;28;20039;-62
2021/10/28 02:16:09;;;;;;;14.35;10.95;;;;;;;;;;5071463;28;20043;-61
2021/10/28 02:18:34;;;;;;;14.07;10.35;;;;;;;;;;5071386;28;20036;-61
2021/10/28 02:21:00;;;;;;;12.95;10.45;;;;;;;;;;5069854;28;20143;-61
2021/10/28 02:23:25;;;;;;;12.95;10.35;;;;;;;;;;5072227;28;20044;-61
2021/10/28 02:25:50;;;;;;;12.88;10.70;;;;;;;;;;5074039;28;20028;-61
2021/10/28 02:28:16;;;;;;;13.13;10.40;;;;;;;;;;5069362;28;20054;-61
2021/10/28 02:30:41;;;;;;;10.95;9.02;;;;;;;;;;5074565;28;20079;-61
2021/10/28 02:33:06;;;;;;;12.27;10.35;;;;;;;;;;5074274;28;20024;-62
2021/10/28 02:35:31;;;;;;;11.73;8.55;;;;;;;;;;5073956;28;20449;-62
2021/10/28 02:37:57;;;;;;;10.18;7.75;;;;;;;;;;5075201;28;20414;-62
2021/10/28 02:40:22;;;;;;;8.85;7.45;;;;;;;;;;5074462;28;20503;-61
2021/10/28 02:42:47;;;;;;;15.25;9.25;;;;;;;;;;5074151;28;20389;-62
2021/10/28 02:45:13;;;;;;;11.68;9.35;;;;;;;;;;5073816;28;20381;-62
2021/10/28 02:47:39;;;;;;;11.00;8.75;;;;;;;;;;5074430;28;20028;-62
2021/10/28 02:50:04;;;;;;;10.77;8.73;;;;;;;;;;5074748;28;20020;-61
2021/10/28 02:52:29;;;;;;;12.63;8.98;;;;;;;;;;5073282;28;20085;-59
2021/10/28 02:54:55;;;;;;;10.15;8.30;;;;;;;;;;5073713;28;20028;-61
2021/10/28 02:57:20;;;;;;;10.13;7.40;;;;;;;;;;5071395;28;20023;-61
2021/10/28 02:59:45;;;;;;;9.23;7.95;;;;;;;;;;5072785;28;20488;-62
2021/10/28 03:02:11;;;;;;;10.23;8.32;;;;;;;;;;5074126;28;20024;-61
2021/10/28 03:04:36;;;;;;;9.35;8.32;;;;;;;;;;5073414;28;20021;-62
2021/10/28 03:07:02;;;;;;;8.02;7.15;;;;;;;;;;5073424;28;20107;-62
2021/10/28 03:09:28;;;;;;;7.65;6.72;;;;;;;;;;5072871;28;20048;-62
2021/10/28 03:11:56;;;;;;;8.18;6.88;;;;;;;;;;5073713;28;20029;-66
2021/10/28 03:14:31;;;;;;;9.00;7.38;;;;;;;;;;5073400;28;20473;-61
2021/10/28 03:17:03;;;;;;;;;;;;;;;;;;5074044;28;20016;-62
2021/10/28 03:19:35;;;;;;;9.35;6.25;;;;;;;;;;5074028;28;20197;-62
2021/10/28 03:27:29;;;;;;;9.52;6.40;;;;;;;;;;5062431;28;20105;-62
2021/10/28 03:29:55;;;;;;;8.38;6.55;;;;;;;;;;5073980;28;20028;-63
2021/10/28 03:32:21;;;;;;;7.47;6.15;;;;;;;;;;5073489;28;20101;-62
2021/10/28 03:34:48;;;;;;;8.00;6.57;;;;;;;;;;5073172;28;20446;-61
2021/10/28 03:37:18;;;;;;;8.65;6.05;;;;;;;;;;5073209;28;20039;-62
2021/10/28 03:45:23;;;;;;;7.75;6.10;;;;;;;;;;5069970;28;20062;-60
2021/10/28 04:19:39;;;;;;;5.00;4.50;;;;;;;;;;5072347;28;20097;-61
2021/10/28 04:30:20;;;;;;;5.97;5.03;;;;;;;;;;5070471;28;20083;-62
2021/10/28 04:32:45;;;;;;;5.63;4.70;;;;;;;;;;5067602;28;20397;-62
2021/10/28 04:35:10;;;;;;;4.50;4.10;;;;;;;;;;5058858;28;20314;-63
2021/10/28 04:37:39;;;;;;;7.03;4.53;;;;;;;;;;5072072;28;20187;-62
2021/10/28 04:40:07;;;;;;;5.88;4.22;;;;;;;;;;5071871;28;20062;-62
2021/10/28 04:42:32;;;;;;;4.20;3.80;;;;;;;;;;5072242;28;20025;-62
2021/10/28 04:44:57;;;;;;;4.20;3.65;;;;;;;;;;5071454;28;20028;-61
2021/10/28 04:47:23;;;;;;;5.10;3.95;;;;;;;;;;5071542;28;20055;-61
2021/10/28 04:49:48;;;;;;;4.82;4.32;;;;;;;;;;5072130;28;20025;-60
2021/10/28 04:52:13;;;;;;;5.65;4.30;;;;;;;;;;5071496;28;20492;-61
2021/10/28 04:54:38;;;;;;;5.47;4.50;;;;;;;;;;5071744;28;20064;-61
2021/10/28 04:57:04;;;;;;;8.35;3.97;;;;;;;;;;5069164;28;20469;-61
2021/10/28 04:59:30;;;;;;;7.60;4.78;;;;;;;;;;5070469;28;20123;-61
2021/10/28 05:01:56;;;;;;;4.60;3.80;;;;;;;;;;5071620;28;20021;-60
2021/10/28 05:04:21;;;;;;;6.03;4.57;;;;;;;;;;5072317;28;20020;-62
2021/10/28 05:06:47;;;;;;;6.13;5.03;;;;;;;;;;5070208;28;20374;-57
2021/10/28 05:09:15;;;;;;;6.75;5.40;;;;;;;;;;5071875;28;20384;-61
2021/10/28 05:11:40;;;;;;;8.30;6.53;;;;;;;;;;5071417;28;20028;-61
2021/10/28 05:14:05;;;;;;;11.82;8.68;;;;;;;;;;5071463;28;20028;-62
2021/10/28 05:16:30;;;;;;;10.60;9.13;;;;;;;;;;5071558;28;20421;-61
2021/10/28 05:18:55;;;;;;;10.68;9.57;;;;;;;;;;5071921;28;20527;-61
2021/10/28 05:21:21;;;;;;;10.98;8.70;;;;;;;;;;5071623;28;20026;-61
2021/10/28 05:23:46;;;;;;;11.13;8.55;;;;;;;;;;5070986;28;20071;-62
2021/10/28 05:26:12;;;;;;;10.32;8.07;;;;;;;;;;5071161;28;20031;-62
2021/10/28 05:28:37;;;;;;;8.75;7.22;;;;;;;;;;5067823;28;20040;-61
2021/10/28 05:31:03;;;;;;;9.30;6.85;;;;;;;;;;5071705;28;20380;-62
2021/10/28 05:33:28;;;;;;;10.90;8.07;;;;;;;;;;5071348;28;20514;-62
2021/10/28 05:35:53;;;;;;;8.88;6.60;;;;;;;;;;5070719;28;20029;-61
2021/10/28 05:38:19;;;;;;;8.38;6.47;;;;;;;;;;5071209;28;20028;-61
2021/10/28 05:40:44;;;;;;;7.93;6.72;;;;;;;;;;5071502;28;20013;-61
2021/10/28 05:43:10;;;;;;;8.50;7.30;;;;;;;;;;5069480;28;20048;-62
2021/10/28 05:45:35;;;;;;;7.78;6.50;;;;;;;;;;5064275;28;20024;-62
2021/10/28 05:48:01;;;;;;;10.23;8.10;;;;;;;;;;5071026;28;20033;-61
2021/10/28 05:50:26;;;;;;;9.45;6.57;;;;;;;;;;5071159;28;20028;-62
2021/10/28 05:52:53;;;;;;;8.68;6.35;;;;;;;;;;5069492;28;20024;-61
2021/10/28 05:55:20;;;;;;;8.00;6.38;;;;;;;;;;5070955;28;20162;-62
2021/10/28 05:57:45;;;;;;;10.18;6.80;;;;;;;;;;5069239;28;20439;-62
2021/10/28 06:00:11;;;;;;;9.02;6.07;;;;;;;;;;5074691;28;20052;-61
2021/10/28 06:02:37;;;;;;;8.48;6.57;;;;;;;;;;5075452;28;20028;-61
2021/10/28 06:05:02;;;;;;;12.38;6.55;;;;;;;;;;5075292;28;20032;-62
2021/10/28 06:07:28;;;;;;;9.23;6.05;;;;;;;;;;5074777;28;20032;-62
2021/10/28 06:09:53;;;;;;;7.95;6.22;;;;;;;;;;5074495;28;20032;-61
2021/10/28 06:12:19;;;;;;;12.07;8.98;;;;;;;;;;5074063;28;20536;-61
2021/10/28 06:14:44;;;;;;;10.50;6.95;;;;;;;;;;5074600;28;20362;-62
2021/10/28 06:17:12;;;;;;;11.55;7.68;;;;;;;;;;5074817;28;20546;-61
2021/10/28 06:19:38;;;;;;;9.25;6.90;;;;;;;;;;5073977;28;20073;-61
2021/10/28 06:22:03;;;;;;;11.57;6.78;;;;;;;;;;5070717;28;20181;-60
2021/10/28 06:24:29;;;;;;;8.90;6.25;;;;;;;;;;5074278;28;20267;-61
2021/10/28 06:26:54;;;;;;;8.23;6.25;;;;;;;;;;5065206;28;20244;-61
2021/10/28 06:29:19;;;;;;;10.10;6.57;;;;;;;;;;5072107;28;20056;-60
2021/10/28 06:31:47;;;;;;;9.40;6.93;;;;;;;;;;5073454;28;20112;-62
2021/10/28 06:34:25;;;;;;;8.88;6.30;;;;;;;;;;5063496;28;20044;-62
2021/10/28 06:36:50;;;;;;;11.85;7.10;;;;;;;;;;5069010;28;20035;-61
2021/10/28 06:39:16;;;;;;;10.70;7.00;;;;;;;;;;5063123;28;20108;-62
2021/10/28 06:41:41;;;;;;;9.77;6.85;;;;;;;;;;5065060;28;20457;-61
2021/10/28 06:44:06;;;;;;;8.85;6.40;;;;;;;;;;5074440;28;20078;-61
2021/10/28 06:46:32;;;;;;;8.95;6.75;;;;;;;;;;5074459;28;20056;-61
2021/10/28 06:48:58;;;;;;;8.15;6.78;;;;;;;;;;5072911;28;20025;-61
2021/10/28 06:51:23;;;;;;;8.95;6.38;;;;;;;;;;5072556;28;20094;-61
2021/10/28 07:04:28;;;;;;;11.07;8.27;;;;;;;;;;5073020;28;20026;-62
2021/10/28 07:06:54;;;;;;;11.88;9.00;;;;;;;;;;5067646;28;20116;-62
2021/10/28 07:09:26;;;;;;;12.75;7.25;;;;;;;;;;5064761;28;20025;-62
2021/10/28 07:12:18;;;;;;;10.48;7.15;;;;;;;;;;5059166;28;20507;-62
2021/10/28 07:14:44;;;;;;;12.25;8.00;;;;;;;;;;5064307;28;20048;-61
2021/10/28 07:17:25;;;;;;;11.45;7.15;;;;;;;;;;5065988;28;20038;-61
2021/10/28 07:27:54;;;;;;;11.85;7.80;;;;;;;;;;5065893;28;20047;-61
2021/10/28 08:21:15;;;;;;;12.00;7.68;;;;;;;;;;5071651;28;20041;-62
2021/10/28 08:23:49;;;;;;;10.25;7.00;;;;;;;;;;5069523;28;20129;-62
2021/10/28 08:29:06;;;;;;;9.15;6.72;;;;;;;;;;5066753;28;20481;-62
2021/10/28 08:31:31;;;;;;;9.85;6.90;;;;;;;;;;5059367;28;20032;-62
2021/10/28 08:33:56;;;;;;;9.13;5.80;;;;;;;;;;5069949;28;20020;-63
2021/10/28 08:36:30;;;;;;;9.65;5.95;;;;;;;;;;5071854;28;20024;-62
2021/10/28 08:38:56;;;;;;;14.45;5.80;;;;;;;;;;5070158;28;20032;-63
2021/10/28 08:41:23;;;;;;;6.60;5.55;;;;;;;;;;5071108;28;20389;-63
2021/10/28 08:43:49;;;;;;;7.60;5.45;;;;;;;;;;5069033;28;20078;-62
2021/10/28 08:46:15;;;;;;;6.80;4.53;;;;;;;;;;5066912;28;20020;-63
2021/10/28 08:48:44;;;;;;;11.98;5.40;;;;;;;;;;5052391;28;20021;-63
2021/10/28 08:51:15;;;;;;;7.57;5.30;;;;;;;;;;5070898;28;20419;-59
2021/10/28 08:54:03;;;;;;;8.02;4.60;;;;;;;;;;5083952;28;20051;-62
2021/10/28 09:26:45;;;;;;;5.80;3.50;;;;;;;;;;5061842;28;20001;-60
2021/10/28 09:31:51;;;;;;;7.38;3.80;;;;;;;;;;5065895;28;20115;-61
2021/10/28 09:45:32;;;;;;;4.35;3.95;;;;;;;;;;5067217;28;20112;-61
2021/10/28 09:50:26;;;;;;;6.05;2.88;;;;;;;;;;5063184;28;20457;-61
2021/10/28 09:58:26;;;;;;;4.95;2.78;;;;;;;;;;5060657;28;20467;-62
2021/10/28 10:00:51;;;;;;;3.95;2.70;;;;;;;;;;5068990;28;20366;-60
2021/10/28 10:03:38;;;;;;;3.13;2.30;;;;;;;;;;5079168;28;20034;-62
2021/10/28 10:06:06;;;;;;;2.53;1.77;;;;;;;;;;5069989;28;20092;-62
2021/10/28 10:08:33;;;;;;;3.15;1.95;;;;;;;;;;5070614;28;20040;-62
2021/10/28 10:10:58;;;;;;;2.72;2.17;;;;;;;;;;5070539;28;20059;-62
2021/10/28 10:13:27;;;;;;;2.95;1.85;;;;;;;;;;5065973;28;20435;-61
2021/10/28 10:15:53;;;;;;;2.65;2.00;;;;;;;;;;5065330;28;20115;-62
2021/10/28 10:18:20;;;;;;;2.88;1.48;;;;;;;;;;5069747;28;20111;-62
2021/10/28 10:20:49;;;;;;;3.50;1.58;;;;;;;;;;5063268;28;20442;-60
2021/10/28 10:26:17;;;;;;;2.00;1.80;;;;;;;;;;5070135;28;20499;-62
2021/10/28 10:29:29;;;;;;;3.15;1.48;;;;;;;;;;5065289;28;20051;-63
2021/10/28 11:05:36;;;;;;;2.55;0.93;;;;;;;;;;5073959;28;20085;-64
2021/10/28 11:28:11;;;;;;;3.60;0.50;;;;;;;;;;5057170;28;20067;-62
2021/10/28 12:21:00;;;;;;;5.57;1.15;;;;;;;;;;5071777;28;20044;-61
2021/10/28 12:50:45;;;;;;;0.68;0.52;;;;;;;;;;5030612;28;20036;-61
2021/10/28 13:04:36;;;;;;;2.80;0.70;;;;;;;;;;5020618;28;20539;-61
2021/10/28 13:48:29;;;;;;;3.95;1.20;;;;;;;;;;5092136;28;20032;-57
2021/10/28 13:53:44;;;;;;;2.55;1.65;;;;;;;;;;5097991;28;20507;-61
2021/10/28 13:59:28;;;;;;;3.25;1.55;;;;;;;;;;5087303;28;20178;-62
2021/10/28 14:15:56;;;;;;;3.65;1.85;;;;;;;;;;5090726;28;20120;-62
2021/10/28 14:39:31;;;;;;;4.10;3.00;;;;;;;;;;5094930;28;20035;-61
2021/10/28 15:31:15;;;;;;;7.32;6.20;;;;;;;;;;5009808;28;20135;-60
2021/10/28 15:38:47;;;;;;;7.40;5.53;;;;;;;;;;5104344;28;20023;-64
2021/10/28 15:57:38;;;;;;;8.60;7.47;;;;;;;;;;5087514;28;20066;-64
2021/10/28 16:00:16;;;;;;;9.63;8.15;;;;;;;;;;5083431;28;20539;-64
2021/10/28 16:22:00;;;;;;;10.20;8.90;;;;;;;;;;5086605;28;20065;-57
2021/10/28 16:24:26;;;;;;;11.90;9.93;;;;;;;;;;5105280;28;20396;-62
2021/10/28 16:26:52;;;;;;;11.30;9.50;;;;;;;;;;5107335;28;20103;-61
2021/10/28 16:29:18;;;;;;;12.77;10.10;;;;;;;;;;5088937;28;20055;-62
2021/10/28 16:31:44;;;;;;;11.30;9.60;;;;;;;;;;5100538;28;20024;-61
2021/10/28 16:34:10;;;;;;;11.55;9.75;;;;;;;;;;5099043;28;20050;-62
2021/10/28 16:36:35;;;;;;;10.55;9.40;;;;;;;;;;5089774;28;20027;-62
2021/10/28 16:39:06;;;;;;;12.15;9.68;;;;;;;;;;5093583;28;20107;-61
2021/10/28 16:41:31;;;;;;;11.20;8.75;;;;;;;;;;5086118;28;20047;-61
2021/10/28 16:43:56;;;;;;;12.02;9.25;;;;;;;;;;5066748;28;20388;-61
2021/10/28 16:46:21;;;;;;;13.20;10.20;;;;;;;;;;5091980;28;20016;-61
2021/10/28 16:48:47;;;;;;;12.85;9.88;;;;;;;;;;5092428;28;20028;-61
2021/10/28 16:51:12;;;;;;;12.52;9.68;;;;;;;;;;5092159;28;20138;-61
2021/10/28 16:53:38;;;;;;;12.23;9.60;;;;;;;;;;5092996;28;20369;-61
2021/10/28 16:56:03;;;;;;;11.70;9.48;;;;;;;;;;5083068;28;20029;-62
2021/10/28 16:58:29;;;;;;;11.57;9.40;;;;;;;;;;5081389;28;20452;-59
2021/10/28 17:00:54;;;;;;;12.75;10.32;;;;;;;;;;5091578;28;20032;-64
2021/10/28 17:03:19;;;;;;;12.20;9.70;;;;;;;;;;5094205;28;20028;-60
2021/10/28 17:05:46;;;;;;;12.40;9.95;;;;;;;;;;5075393;28;20028;-63
2021/10/28 17:08:11;;;;;;;14.85;11.10;;;;;;;;;;5092673;28;20026;-61
2021/10/28 17:10:36;;;;;;;12.57;11.18;;;;;;;;;;5090759;28;20024;-63
2021/10/28 17:13:02;;;;;;;15.43;10.45;;;;;;;;;;5091025;28;20024;-61
2021/10/28 17:15:27;;;;;;;12.00;10.77;;;;;;;;;;5066591;28;20047;-62
2021/10/28 17:17:52;;;;;;;13.52;10.48;;;;;;;;;;5101477;28;20031;-61
2021/10/28 17:20:19;;;;;;;12.70;10.52;;;;;;;;;;5106788;28;20368;-63
2021/10/28 17:22:44;;;;;;;13.73;11.35;;;;;;;;;;5106074;28;20089;-62
2021/10/28 17:25:17;;;;;;;16.05;12.23;;;;;;;;;;5097848;28;20016;-59
2021/10/28 17:27:44;;;;;;;13.65;11.95;;;;;;;;;;5095509;28;20028;-62
2021/10/28 17:30:09;;;;;;;14.02;11.43;;;;;;;;;;5091387;28;20514;-58
2021/10/28 17:32:36;;;;;;;12.38;11.07;;;;;;;;;;5073863;28;20024;-62
2021/10/28 17:35:02;;;;;;;13.77;11.77;;;;;;;;;;5095730;28;20106;-61
2021/10/28 17:37:27;;;;;;;12.70;10.73;;;;;;;;;;5099481;28;20099;-62
2021/10/28 17:39:52;;;;;;;13.93;12.15;;;;;;;;;;5102143;28;20051;-62
2021/10/28 17:42:18;;;;;;;16.42;11.70;;;;;;;;;;5095830;28;20032;-62
2021/10/28 17:44:53;;;;;;;13.25;11.50;;;;;;;;;;5072049;28;20445;-62
2021/10/28 17:47:18;;;;;;;15.35;11.90;;;;;;;;;;5079342;28;20031;-62
2021/10/28 17:49:45;;;;;;;14.70;11.63;;;;;;;;;;5112045;28;20032;-61
2021/10/28 17:52:10;;;;;;;16.30;11.60;;;;;;;;;;5107538;28;20016;-62
2021/10/28 17:54:36;;;;;;;13.88;11.50;;;;;;;;;;5077725;28;20035;-63
2021/10/28 17:57:01;;;;;;;15.52;12.57;;;;;;;;;;5093298;28;20036;-61
2021/10/28 17:59:27;;;;;;;15.70;12.55;;;;;;;;;;5090312;28;20029;-62
2021/10/28 18:01:52;;;;;;;17.70;13.18;;;;;;;;;;5087679;28;20063;-61
2021/10/28 18:04:17;;;;;;;14.75;11.30;;;;;;;;;;5116146;28;20453;-62
2021/10/28 18:06:42;;;;;;;13.60;12.02;;;;;;;;;;5109916;28;20028;-62
2021/10/28 18:09:08;;;;;;;14.02;11.68;;;;;;;;;;5097259;28;20532;-62
2021/10/28 18:11:33;;;;;;;18.92;12.52;;;;;;;;;;5076065;28;20063;-63
2021/10/28 18:13:59;;;;;;;17.38;13.65;;;;;;;;;;5093056;28;20032;-62
2021/10/28 18:16:28;;;;;;;18.60;14.48;;;;;;;;;;5077090;28;20028;-62
2021/10/28 18:18:57;;;;;;;20.48;15.75;;;;;;;;;;5094812;28;20488;-62
2021/10/28 18:21:23;;;;;;;19.50;13.90;;;;;;;;;;5095658;28;20023;-61
2021/10/28 18:23:49;;;;;;;20.10;14.35;;;;;;;;;;5094433;28;20062;-63
2021/10/28 18:26:18;;;;;;;18.20;13.52;;;;;;;;;;5074264;28;20097;-63
2021/10/28 18:28:43;;;;;;;17.30;13.88;;;;;;;;;;5085786;28;20032;-61
2021/10/28 18:31:09;;;;;;;16.70;13.00;;;;;;;;;;5093431;28;20031;-57
2021/10/28 18:33:34;;;;;;;18.05;14.50;;;;;;;;;;5103407;28;20085;-61
2021/10/28 18:35:59;;;;;;;16.25;13.20;;;;;;;;;;5094261;28;20016;-60
2021/10/28 18:38:26;;;;;;;16.42;13.82;;;;;;;;;;5095103;28;20026;-62
2021/10/28 18:40:52;;;;;;;16.60;13.88;;;;;;;;;;5093375;28;20024;-61
2021/10/28 18:43:17;;;;;;;16.45;12.77;;;;;;;;;;5094657;28;20537;-62
2021/10/28 18:45:43;;;;;;;17.13;13.68;;;;;;;;;;5092747;28;20024;-62
2021/10/28 18:48:08;;;;;;;16.85;13.95;;;;;;;;;;5095180;28;20027;-62
2021/10/28 18:50:34;;;;;;;17.10;13.40;;;;;;;;;;5076236;28;20047;-61
2021/10/28 18:52:59;;;;;;;15.93;13.30;;;;;;;;;;5092903;28;20031;-57
2021/10/28 18:55:24;;;;;;;16.17;13.20;;;;;;;;;;5064416;28;20408;-61
2021/10/28 18:57:49;;;;;;;15.45;13.23;;;;;;;;;;5081254;28;20115;-61
2021/10/28 19:00:15;;;;;;;14.82;12.48;;;;;;;;;;5092552;28;20434;-61
2021/10/28 19:02:40;;;;;;;17.05;13.60;;;;;;;;;;5094081;28;20032;-63
2021/10/28 19:05:06;;;;;;;16.63;13.32;;;;;;;;;;5088915;28;20035;-63
2021/10/28 19:07:31;;;;;;;15.93;13.20;;;;;;;;;;5085557;28;20024;-62
2021/10/28 19:09:56;;;;;;;17.67;14.38;;;;;;;;;;5086172;28;20031;-62
2021/10/28 19:12:22;;;;;;;19.05;14.18;;;;;;;;;;5093632;28;20093;-62
2021/10/28 19:14:47;;;;;;;14.30;12.30;;;;;;;;;;5087709;28;20024;-62
2021/10/28 19:17:13;;;;;;;16.52;12.88;;;;;;;;;;5101069;28;20125;-63
2021/10/28 19:19:38;;;;;;;17.02;12.60;;;;;;;;;;5114891;28;20051;-62
2021/10/28 19:22:04;;;;;;;16.45;12.82;;;;;;;;;;5114477;28;20016;-62
2021/10/28 19:24:29;;;;;;;17.27;13.45;;;;;;;;;;5106149;28;20480;-62
2021/10/28 19:26:54;;;;;;;21.15;16.15;;;;;;;;;;5091363;28;20381;-61
2021/10/28 19:29:21;;;;;;;22.35;16.50;;;;;;;;;;5092056;28;20415;-61
2021/10/28 19:31:53;;;;;;;19.50;15.98;;;;;;;;;;5093780;28;20020;-62
2021/10/28 19:34:19;;;;;;;22.52;17.27;;;;;;;;;;5094123;28;20020;-62
2021/10/28 19:39:49;;;;;;;20.73;16.33;;;;;;;;;;5086085;28;20020;-62
2021/10/28 19:45:01;;;;;;;20.70;16.17;;;;;;;;;;5102077;28;20031;-62
2021/10/28 19:47:47;;;;;;;17.83;14.63;;;;;;;;;;5091204;28;20019;-63
2021/10/28 19:50:13;;;;;;;21.45;15.55;;;;;;;;;;5100964;28;20068;-63
2021/10/28 19:52:39;;;;;;;19.75;15.77;;;;;;;;;;5093657;28;20105;-63
2021/10/28 19:55:04;;;;;;;21.20;17.58;;;;;;;;;;5068645;28;20031;-62
2021/10/28 19:57:33;;;;;;;21.52;16.73;;;;;;;;;;5094382;28;20031;-61
2021/10/28 20:00:15;;;;;;;21.40;16.48;;;;;;;;;;5089564;28;20035;-63
2021/10/28 20:13:23;;;;;;;18.48;14.10;;;;;;;;;;5093400;28;20609;-60
2021/10/28 20:21:16;;;;;;;22.10;17.23;;;;;;;;;;5086539;28;20046;-62
2021/10/28 20:23:41;;;;;;;20.08;16.83;;;;;;;;;;5091699;28;20431;-62
2021/10/28 20:26:07;;;;;;;21.05;16.33;;;;;;;;;;5091133;28;20027;-62
2021/10/28 20:28:44;;;;;;;20.60;16.23;;;;;;;;;;5085779;28;20058;-61
2021/10/28 20:31:09;;;;;;;21.27;16.63;;;;;;;;;;5102079;28;20434;-62
2021/10/28 20:33:41;;;;;;;22.52;17.25;;;;;;;;;;5108651;28;20035;-62
2021/10/28 20:38:55;;;;;;;20.50;16.25;;;;;;;;;;5084944;28;20057;-61
2021/10/28 20:41:20;;;;;;;20.80;15.93;;;;;;;;;;5096466;28;20023;-60
2021/10/28 20:43:46;;;;;;;18.45;15.35;;;;;;;;;;5092855;28;20074;-63
2021/10/28 20:46:18;;;;;;;21.23;16.75;;;;;;;;;;5097458;28;20028;-63
2021/10/28 20:48:44;;;;;;;22.77;17.35;;;;;;;;;;5073556;28;20028;-63
2021/10/28 20:51:09;;;;;;;20.38;16.67;;;;;;;;;;5074092;28;20039;-63
2021/10/28 20:53:34;;;;;;;18.75;15.27;;;;;;;;;;5092179;28;20035;-63
2021/10/28 20:56:00;;;;;;;19.58;14.77;;;;;;;;;;5099566;28;20020;-63
2021/10/28 20:58:25;;;;;;;21.00;15.95;;;;;;;;;;5084352;28;20039;-63
2021/10/28 21:00:51;;;;;;;21.17;16.40;;;;;;;;;;5091434;28;20036;-62
2021/10/28 21:03:17;;;;;;;19.60;15.45;;;;;;;;;;5091818;28;20031;-63
2021/10/28 21:05:43;;;;;;;21.73;17.02;;;;;;;;;;5091720;28;20028;-63
2021/10/28 21:08:08;;;;;;;23.02;16.75;;;;;;;;;;5082735;28;20588;-63
2021/10/28 21:10:34;;;;;;;23.05;18.98;;;;;;;;;;5091740;28;20108;-63
2021/10/28 21:12:59;;;;;;;20.05;16.65;;;;;;;;;;5092040;28;20059;-59
2021/10/28 21:15:25;;;;;;;19.67;15.60;;;;;;;;;;5091829;28;20118;-64
2021/10/28 21:17:50;;;;;;;20.67;15.63;;;;;;;;;;5090412;28;20024;-64
2021/10/28 21:20:16;;;;;;;20.75;15.65;;;;;;;;;;5091569;28;20145;-63
2021/10/28 21:22:41;;;;;;;21.23;17.52;;;;;;;;;;5091554;28;20545;-62
2021/10/28 21:25:07;;;;;;;20.67;15.98;;;;;;;;;;5088868;28;20020;-63
2021/10/28 21:27:33;;;;;;;20.73;15.65;;;;;;;;;;5088397;28;20031;-63
2021/10/28 21:29:58;;;;;;;22.05;16.65;;;;;;;;;;5091517;28;20039;-62
2021/10/28 21:32:23;;;;;;;22.02;15.90;;;;;;;;;;5089200;28;20468;-62
2021/10/28 21:34:48;;;;;;;21.42;16.88;;;;;;;;;;5068787;28;20036;-62
2021/10/28 21:37:15;;;;;;;20.13;16.58;;;;;;;;;;5088174;28;20063;-63
2021/10/28 21:39:41;;;;;;;20.35;15.63;;;;;;;;;;5094652;28;20023;-61
2021/10/28 21:42:07;;;;;;;22.65;16.63;;;;;;;;;;5087438;28;20024;-62
2021/10/28 21:44:33;;;;;;;21.70;17.23;;;;;;;;;;5072491;28;20055;-62
2021/10/28 21:46:58;;;;;;;21.05;16.83;;;;;;;;;;5094167;28;20113;-60
2021/10/28 21:49:24;;;;;;;19.42;15.63;;;;;;;;;;5082059;28;20141;-62
2021/10/28 21:51:52;;;;;;;23.45;17.10;;;;;;;;;;5091050;28;20054;-56
2021/10/28 22:24:12;;;;;;;19.40;15.07;;;;;;;;;;5103737;28;20077;-61
2021/10/28 22:26:37;;;;;;;20.02;15.73;;;;;;;;;;5094271;28;20103;-61
2021/10/28 22:29:03;;;;;;;18.08;15.00;;;;;;;;;;5087604;28;20139;-61
2021/10/28 22:31:28;;;;;;;19.95;14.40;;;;;;;;;;5090870;28;20063;-61
2021/10/28 22:33:53;;;;;;;19.13;14.50;;;;;;;;;;5091574;28;20035;-61
2021/10/28 22:36:29;;;;;;;18.73;14.35;;;;;;;;;;5099749;28;20024;-57
2021/10/28 22:38:58;;;;;;;17.42;13.57;;;;;;;;;;5083967;28;20024;-61
2021/10/28 22:41:24;;;;;;;18.60;14.43;;;;;;;;;;5094821;28;20549;-63
2021/10/28 22:43:49;;;;;;;18.50;14.23;;;;;;;;;;5095428;28;20055;-61
2021/10/28 22:46:15;;;;;;;17.17;14.23;;;;;;;;;;5082230;28;20028;-62
2021/10/28 22:48:40;;;;;;;19.30;15.18;;;;;;;;;;5095358;28;20016;-60
2021/10/28 22:51:05;;;;;;;21.90;15.77;;;;;;;;;;5077355;28;20452;-61
2021/10/28 22:53:31;;;;;;;24.10;18.63;;;;;;;;;;5094435;28;20400;-60
2021/10/28 22:55:57;;;;;;;26.65;17.30;;;;;;;;;;5094509;28;20090;-61
2021/10/28 22:58:28;;;;;;;20.90;16.80;;;;;;;;;;5091521;28;20115;-61
2021/10/28 23:14:53;;;;;;;19.17;14.95;;;;;;;;;;5093682;28;20548;-61
2021/10/28 23:22:19;;;;;;;22.10;16.23;;;;;;;;;;4992387;28;20248;-62
2021/10/28 23:24:44;;;;;;;22.83;17.35;;;;;;;;;;4992433;28;20529;-61
2021/10/28 23:27:09;;;;;;;25.05;18.08;;;;;;;;;;4972298;28;20038;-62
2021/10/28 23:29:34;;;;;;;25.63;18.55;;;;;;;;;;4991457;28;20518;-61
2021/10/28 23:32:00;;;;;;;24.10;18.38;;;;;;;;;;4992588;28;20306;-60
2021/10/28 23:34:27;;;;;;;21.55;17.08;;;;;;;;;;4992606;28;20022;-61
2021/10/28 23:36:52;;;;;;;20.92;16.55;;;;;;;;;;4991867;28;20041;-61
2021/10/28 23:39:18;;;;;;;24.85;17.13;;;;;;;;;;4992123;28;20403;-62
2021/10/28 23:41:43;;;;;;;22.83;18.00;;;;;;;;;;4991432;28;20486;-61
2021/10/28 23:44:08;;;;;;;19.25;14.88;;;;;;;;;;4992192;28;20030;-62
2021/10/28 23:46:33;;;;;;;20.42;15.45;;;;;;;;;;4991628;28;20031;-61
2021/10/28 23:48:59;;;;;;;17.65;14.60;;;;;;;;;;4992042;28;20030;-61
2021/10/28 23:51:24;;;;;;;22.60;14.82;;;;;;;;;;4991953;28;20467;-61
2021/10/28 23:53:49;;;;;;;18.25;14.90;;;;;;;;;;4991665;28;20492;-61
2021/10/28 23:56:14;;;;;;;22.42;16.90;;;;;;;;;;5022215;28;20032;-60
2021/10/28 23:58:39;;;;;;;24.67;17.90;;;;;;;;;;5091318;28;20036;-61
